This is the latest recevied weather packets stored in our database for station/object PP5KJ-13. If no packets are shown the sender has not sent any weather packets the latest 10 day(s).
| Time | Temp. | Humidity | Pressure | Rain* | Wind** | Luminosity | Snow |
|---|---|---|---|---|---|---|---|
| 1788295870 | 21.67° C | 5% | 1013 hPa | 0 mm | 6.71 m/s, 150° | - | - |
| 1788295271 | 21.67° C | 5% | 1013 hPa | 0 mm | 6.71 m/s, 150° | - | - |
| 1788294070 | 22.22° C | 5% | 1013 hPa | 0 mm | 6.71 m/s, 150° | - | - |
| 1788293470 | 22.22° C | 5% | 1012 hPa | 0 mm | 6.71 m/s, 150° | - | - |
| 1788292871 | 22.22° C | 5% | 1012 hPa | 0 mm | 4.47 m/s, 192° | - | - |
| 1788292270 | 23.89° C | 5% | 1012 hPa | 0 mm | 4.47 m/s, 192° | - | - |
| 1788291670 | 25° C | 5% | 1012 hPa | 0 mm | 4.47 m/s, 192° | - | - |
| 1788291070 | 28.33° C | 5% | 1012 hPa | 0 mm | 4.92 m/s, 187° | - | - |
| 1788290486 | 27.22° C | 5% | 1012 hPa | 0 mm | 4.92 m/s, 187° | - | - |
| 1788289874 | 28.89° C | 5% | 1011 hPa | 0 mm | 6.26 m/s, 170° | - | - |
| 1788289270 | 26.67° C | 5% | 1011 hPa | 0 mm | 4.92 m/s, 187° | - | - |
| 1788288670 | 28.89° C | 5% | 1011 hPa | 0 mm | 4.92 m/s, 187° | - | - |
| 1788288070 | 31.67° C | 5% | 1011 hPa | 0 mm | 4.92 m/s, 187° | - | - |
| 1788287471 | 37.22° C | 5% | 1010 hPa | 0 mm | 6.71 m/s, 190° | - | - |
| 1788286870 | 37.22° C | 5% | 1010 hPa | 0 mm | 6.71 m/s, 190° | - | - |
| 1788286270 | 31.11° C | 5% | 1010 hPa | 0 mm | 6.71 m/s, 190° | - | - |
| 1788285670 | 28.89° C | 5% | 1011 hPa | 0 mm | 6.26 m/s, 190° | - | - |
| 1788285070 | 31.11° C | 5% | 1011 hPa | 0 mm | 6.26 m/s, 190° | - | - |
| 1788284470 | 30.56° C | 5% | 1011 hPa | 0 mm | 6.26 m/s, 190° | - | - |
| 1788283870 | 33.33° C | 5% | 1011 hPa | 0 mm | 6.26 m/s, 190° | - | - |
| 1788283270 | 28.33° C | 5% | 1011 hPa | 0 mm | 6.26 m/s, 190° | - | - |
| 1788282670 | 29.44° C | 5% | 1011 hPa | 0 mm | 6.26 m/s, 190° | - | - |
| 1788282070 | 27.78° C | 5% | 1011 hPa | 0 mm | 8.94 m/s, 190° | - | - |
| 1788281470 | 26.67° C | 5% | 1011 hPa | 0 mm | 8.94 m/s, 190° | - | - |
| 1788280870 | 27.22° C | 5% | 1011 hPa | 0 mm | 8.94 m/s, 190° | - | - |
* Rain latest hour (hover to see other rain measurements)
** Current wind speed in m/s (hover to see current wind gust speed)